Queen Of Cowichan — CZ4990 — position and weather

sailwx.info

Track history (hours):
 
Tides and Currents Weather Stations Pressure Air Temp Water Temp Dewpoint Dewpoint Depression Visibility Wind Speed Wind Dir Waves Ship Positions

Queen Of Cowichan

Last reported at 2017-Apr-27 18:30 UTC. Time now 2017-Apr-27 18:52 UTC.
Position N 49°17' W 123°31'.

Length 139 m.

Type: Passenger vessel. MMSI: 316001251.

Date/timePositionNaut miles runAvg speedWind from/ knotsBaromVisibWave heightAir tempDewpointWater temp
2017-Apr-27 18:30N 49°17' W 123°31'9 4.7
2017-Apr-27 16:36N 49°15' W 123°44'219.7
2017-Apr-27 16:30N 49°16' W 123°42'1019.5
2017-Apr-27 16:00N 49°19' W 123°28'816.9
2017-Apr-27 15:30N 49°23' W 123°16'0 0.9
2017-Apr-27 15:00N 49°23' W 123°16'2019.6
2017-Apr-27 14:00N 49°15' W 123°44'3 0.3
2017-Apr-27 05:15N 49°15' W 123°48'519.5
2017-Apr-27 05:00N 49°17' W 123°41'1019.5
2017-Apr-27 04:30N 49°17' W 123°26'816.4
2017-Apr-27 04:00N 49°23' W 123°16'1 1.4
2017-Apr-27 03:30N 49°23' W 123°17'1019.2
2017-Apr-27 03:01N 49°18' W 123°29'1120.8
2017-Apr-27 02:30N 49°15' W 123°44'910.7
2017-Apr-27 01:40N 49°12' W 123°57'212.4
2017-Apr-27 01:29N 49°13' W 123°55'1019.6
2017-Apr-27 01:00N 49°17' W 123°41'1019.8
2017-Apr-27 00:30N 49°19' W 123°27'8 8.2
2017-Apr-26 23:34N 49°23' W 123°16'1 9.4
2017-Apr-26 23:30N 49°23' W 123°17'919.2
2017-Apr-26 23:00N 49°18' W 123°29'1020.3
2017-Apr-26 22:30N 49°15' W 123°44'9 7.0
2017-Apr-26 21:11N 49°12' W 123°57'618.6
2017-Apr-26 20:52N 49°14' W 123°49'720.2
2017-Apr-26 20:30N 49°17' W 123°39'1020.2
2017-Apr-26 20:00N 49°19' W 123°24'6 6.7
2017-Apr-26 19:07N 49°23' W 123°16'1 8.6
2017-Apr-26 19:00N 49°23' W 123°18'1019.4
2017-Apr-26 18:30N 49°17' W 123°30'1912.8
2017-Apr-26 17:03N 49°12' W 123°57'114.2
2017-Apr-26 17:00N 49°12' W 123°56'1019.4
2017-Apr-26 16:29N 49°16' W 123°42'1020.0
2017-Apr-26 16:00N 49°19' W 123°28'815.0
2017-Apr-26 15:26N 49°23' W 123°16'0 1.1
2017-Apr-26 15:00N 49°23' W 123°16'918.5
2017-Apr-26 14:30N 49°18' W 123°28'13 1.4
2017-Apr-26 05:10N 49°15' W 123°47'320.1
2017-Apr-26 05:00N 49°16' W 123°43'1020.6
2017-Apr-26 04:30N 49°19' W 123°27'816.2
2017-Apr-26 04:00N 49°23' W 123°16'1 2.3
2017-Apr-26 03:30N 49°23' W 123°18'1019.7
2017-Apr-26 03:00N 49°17' W 123°31'1120.8
2017-Apr-26 02:28N 49°15' W 123°47'6 6.7
2017-Apr-26 01:35N 49°13' W 123°56'319.6
2017-Apr-26 01:26N 49°14' W 123°52'819.8
2017-Apr-26 01:00N 49°17' W 123°40'1020.2
2017-Apr-26 00:30N 49°19' W 123°25'6 8.7
2017-Apr-25 23:46N 49°23' W 123°16'1 3.9
2017-Apr-25 23:31N 49°23' W 123°18'1019.6
2017-Apr-25 23:00N 49°18' W 123°30'1020.3
2017-Apr-25 22:30N 49°15' W 123°45'4 2.3
2017-Apr-25 20:54N 49°14' W 123°51'820.0
2017-Apr-25 20:30N 49°17' W 123°40'1020.2
2017-Apr-25 20:00N 49°19' W 123°25'612.0
2017-Apr-25 19:29N 49°23' W 123°16'1 2.5
2017-Apr-25 19:00N 49°23' W 123°18'1019.6
2017-Apr-25 18:31N 49°17' W 123°31'1120.4
2017-Apr-25 17:59N 49°14' W 123°47'7 8.4
2017-Apr-25 17:06N 49°12' W 123°57'214.1
2017-Apr-25 16:58N 49°13' W 123°55'919.6
2017-Apr-25 16:30N 49°17' W 123°42'1020.1
2017-Apr-25 16:00N 49°19' W 123°27'8 8.5
2017-Apr-25 15:02N 49°23' W 123°16'011.3
2017-Apr-25 15:01N 49°23' W 123°17'1019.4
2017-Apr-25 14:30N 49°18' W 123°29'18 2.0
2017-Apr-25 05:28N 49°13' W 123°56'920.0
2017-Apr-25 05:00N 49°16' W 123°43'1020.5
2017-Apr-25 04:30N 49°19' W 123°28'8 8.7
2017-Apr-25 03:33N 49°23' W 123°16'010.0
2017-Apr-25 03:30N 49°23' W 123°16'918.6
2017-Apr-25 03:00N 49°18' W 123°28'1020.6
2017-Apr-25 02:30N 49°15' W 123°43'1 0.9
2017-Apr-25 01:08N 49°15' W 123°45'219.7
2017-Apr-25 01:00N 49°16' W 123°41'1019.8
2017-Apr-25 00:30N 49°19' W 123°27'811.6
2017-Apr-24 23:50N 49°23' W 123°16'1 2.5
2017-Apr-24 23:31N 49°23' W 123°17'1019.6
2017-Apr-24 23:01N 49°18' W 123°30'1020.7
2017-Apr-24 22:30N 49°15' W 123°45'9 7.8
2017-Apr-24 21:25N 49°12' W 123°57'819.1
2017-Apr-24 20:59N 49°16' W 123°46'919.8
2017-Apr-24 20:30N 49°18' W 123°32'918.7
2017-Apr-24 20:00N 49°22' W 123°19'2 3.6
2017-Apr-24 19:29N 49°23' W 123°16'2 4.9
2017-Apr-24 19:00N 49°21' W 123°19'1019.6
2017-Apr-24 18:30N 49°17' W 123°33'12 7.6
2017-Apr-24 16:54N 49°14' W 123°51'819.8
2017-Apr-24 16:31N 49°17' W 123°40'1020.3
2017-Apr-24 16:01N 49°19' W 123°25'712.5
2017-Apr-24 15:28N 49°23' W 123°16'1 1.5
2017-Apr-24 15:01N 49°23' W 123°17'1019.3
2017-Apr-24 14:30N 49°18' W 123°29'1919.4
2017-Apr-24 13:30N 49°12' W 123°57'0 0.0
2017-Apr-24 13:00N 49°12' W 123°57'0 0.0
2017-Apr-24 09:29N 49°12' W 123°57'0 0.0
2017-Apr-24 08:59N 49°12' W 123°57'0 0.0
2017-Apr-24 06:11N 49°12' W 123°57'1 6.0
2017-Apr-24 06:00N 49°12' W 123°56'1020.0
2017-Apr-24 05:30N 49°16' W 123°42'1020.4
2017-Apr-24 05:00N 49°19' W 123°27'815.9
2017-Apr-24 04:30N 49°23' W 123°16'1 1.6
2017-Apr-24 04:00N 49°23' W 123°17'1019.3
2017-Apr-24 03:31N 49°18' W 123°30'1020.1
2017-Apr-24 03:00N 49°15' W 123°45'917.9
2017-Apr-24 02:30N 49°12' W 123°57'0 0.0
2017-Apr-24 02:00N 49°12' W 123°57'4 8.3
2017-Apr-24 01:30N 49°14' W 123°52'1019.9
2017-Apr-24 01:00N 49°17' W 123°38'1020.3
2017-Apr-24 00:30N 49°20' W 123°23'510.2
2017-Apr-24 00:00N 49°23' W 123°16'1 1.5
2017-Apr-23 23:30N 49°23' W 123°17'918.9
2017-Apr-23 23:01N 49°18' W 123°29'1020.3
2017-Apr-23 22:30N 49°15' W 123°44'918.8
2017-Apr-23 22:00N 49°12' W 123°57'0 0.0
2017-Apr-23 21:30N 49°12' W 123°57'4 7.7
2017-Apr-23 21:00N 49°14' W 123°53'1019.8
2017-Apr-23 20:30N 49°17' W 123°38'1020.1
2017-Apr-23 20:00N 49°19' W 123°23'611.2
2017-Apr-23 19:31N 49°23' W 123°16'1 2.1
2017-Apr-23 19:01N 49°23' W 123°18'1019.3
2017-Apr-23 18:30N 49°17' W 123°30'1020.3
2017-Apr-23 18:00N 49°15' W 123°45'815.8
2017-Apr-23 17:28N 49°12' W 123°57'1 2.1
2017-Apr-23 17:00N 49°12' W 123°56'1019.7
2017-Apr-23 16:30N 49°16' W 123°42'1020.2
2017-Apr-23 16:01N 49°18' W 123°27'816.8
2017-Apr-23 15:30N 49°23' W 123°16'1 1.4
2017-Apr-23 15:00N 49°23' W 123°17'1918.9
2017-Apr-23 14:00N 49°15' W 123°43'1019.5
2017-Apr-23 13:30N 49°12' W 123°57'0 0.3
2017-Apr-23 13:00N 49°12' W 123°57'0 0.0
2017-Apr-23 12:30N 49°12' W 123°57'0 0.0
2017-Apr-23 11:57N 49°12' W 123°57'0 0.0
2017-Apr-23 11:27N 49°12' W 123°57'0 0.0
2017-Apr-23 11:00N 49°12' W 123°57'0 0.0
2017-Apr-23 09:54N 49°12' W 123°57'0 0.0
2017-Apr-23 09:30N 49°12' W 123°57'0 0.0
2017-Apr-23 08:51N 49°12' W 123°57'0 0.0
2017-Apr-23 08:30N 49°12' W 123°57'0 0.0
2017-Apr-23 07:57N 49°12' W 123°57'0 0.0
2017-Apr-23 07:21N 49°12' W 123°57'0 0.0
2017-Apr-23 05:43N 49°12' W 123°57'2 8.0
2017-Apr-23 05:30N 49°13' W 123°55'1019.9
2017-Apr-23 05:00N 49°17' W 123°41'1020.0
2017-Apr-23 04:30N 49°19' W 123°27'815.2
2017-Apr-23 04:00N 49°23' W 123°16'2 4.0
2017-Apr-23 03:30N 49°22' W 123°19'1019.3
2017-Apr-23 03:00N 49°17' W 123°32'1020.7
2017-Apr-23 02:30N 49°14' W 123°47'714.1
2017-Apr-23 02:00N 49°12' W 123°57'3 5.5
2017-Apr-23 01:30N 49°13' W 123°54'1020.1
2017-Apr-23 01:00N 49°17' W 123°40'1020.4
2017-Apr-23 00:30N 49°19' W 123°25'612.5
2017-Apr-23 00:00N 49°23' W 123°16'1 2.3
2017-Apr-22 23:30N 49°23' W 123°18'918.7
2017-Apr-22 23:00N 49°18' W 123°30'1019.7
2017-Apr-22 22:30N 49°15' W 123°45'916.7
2017-Apr-22 21:58N 49°12' W 123°57'0 0.0
2017-Apr-22 21:24N 49°12' W 123°57'4 9.9
2017-Apr-22 21:00N 49°14' W 123°52'1020.2
2017-Apr-22 20:30N 49°17' W 123°38'1020.0
2017-Apr-22 20:00N 49°19' W 123°23'510.7
2017-Apr-22 19:30N 49°23' W 123°16'2 4.1
2017-Apr-22 19:00N 49°22' W 123°19'1019.7
2017-Apr-22 18:30N 49°17' W 123°32'1020.7
2017-Apr-22 18:00N 49°14' W 123°47'713.6
2017-Apr-22 17:30N 49°12' W 123°57'1 2.6
2017-Apr-22 17:00N 49°12' W 123°56'1019.8
2017-Apr-22 16:30N 49°16' W 123°42'1020.0
2017-Apr-22 16:00N 49°18' W 123°27'816.1
2017-Apr-22 15:30N 49°23' W 123°16'1 1.6
2017-Apr-22 15:00N 49°23' W 123°17'1019.4
2017-Apr-22 14:31N 49°17' W 123°29'19 3.7
2017-Apr-22 09:19N 49°12' W 123°57'0 0.0
2017-Apr-22 08:28N 49°12' W 123°57'0 0.0
2017-Apr-22 07:52N 49°12' W 123°57'0 0.0
2017-Apr-22 05:54N 49°12' W 123°57'614.0
2017-Apr-22 05:30N 49°15' W 123°50'1020.4
2017-Apr-22 05:00N 49°18' W 123°35'1020.2
2017-Apr-22 04:31N 49°20' W 123°20'4 7.0
2017-Apr-22 04:00N 49°23' W 123°16'510.8
2017-Apr-22 03:30N 49°19' W 123°23'1020.5
2017-Apr-22 03:00N 49°16' W 123°38'1120.5
2017-Apr-22 02:30N 49°13' W 123°53'3 6.4
2017-Apr-22 01:59N 49°12' W 123°57'5 9.8
2017-Apr-22 01:30N 49°14' W 123°51'1020.1
2017-Apr-22 01:00N 49°17' W 123°37'1019.8
2017-Apr-22 00:30N 49°20' W 123°22'5 8.0
2017-Apr-21 23:55N 49°23' W 123°16'0 1.1
2017-Apr-21 23:30N 49°23' W 123°16'918.5
2017-Apr-21 23:00N 49°18' W 123°28'1020.6
2017-Apr-21 22:30N 49°15' W 123°43'1019.3
2017-Apr-21 22:00N 49°12' W 123°57'0 0.2
2017-Apr-21 21:30N 49°12' W 123°57'510.3
2017-Apr-21 21:00N 49°15' W 123°51'1019.9
2017-Apr-21 20:30N 49°18' W 123°37'1019.8
2017-Apr-21 20:00N 49°20' W 123°22'5 9.3
2017-Apr-21 19:30N 49°23' W 123°16'1 2.4
2017-Apr-21 19:00N 49°23' W 123°18'1019.5
2017-Apr-21 18:31N 49°17' W 123°31'1120.6
2017-Apr-21 18:00N 49°15' W 123°47'815.9
2017-Apr-21 17:30N 49°12' W 123°57'1 1.6
2017-Apr-21 17:00N 49°12' W 123°57'1019.9
2017-Apr-21 16:30N 49°16' W 123°43'1020.2
2017-Apr-21 16:01N 49°19' W 123°28'816.7
2017-Apr-21 15:30N 49°23' W 123°16'1 1.5
2017-Apr-21 15:00N 49°23' W 123°17'918.9
2017-Apr-21 14:30N 49°18' W 123°29'19 6.0
2017-Apr-21 11:17N 49°12' W 123°57'0 0.0
2017-Apr-21 08:59N 49°12' W 123°57'0 0.0
2017-Apr-21 08:23N 49°12' W 123°57'0 0.0
2017-Apr-21 07:47N 49°12' W 123°57'0 0.0
2017-Apr-21 05:50N 49°12' W 123°57'514.0
2017-Apr-21 05:30N 49°14' W 123°51'1020.5
2017-Apr-21 05:00N 49°18' W 123°37'1020.3
2017-Apr-21 04:31N 49°20' W 123°22'5 9.0
2017-Apr-21 04:00N 49°23' W 123°16'510.4
2017-Apr-21 03:30N 49°19' W 123°22'1020.5
2017-Apr-21 03:00N 49°16' W 123°37'1020.5
2017-Apr-21 02:30N 49°14' W 123°52'4 7.4
2017-Apr-21 02:00N 49°12' W 123°57'510.0
2017-Apr-21 01:30N 49°14' W 123°51'1020.2
2017-Apr-21 01:00N 49°18' W 123°36'1019.6
2017-Apr-21 00:30N 49°20' W 123°22'4 8.8
2017-Apr-21 00:00N 49°23' W 123°16'2 3.3
2017-Apr-20 23:30N 49°22' W 123°19'1019.2
2017-Apr-20 23:01N 49°17' W 123°31'1020.3
2017-Apr-20 22:30N 49°14' W 123°46'815.3
2017-Apr-20 22:00N 49°12' W 123°57'0 0.0
2017-Apr-20 21:29N 49°12' W 123°57'613.3
2017-Apr-20 21:00N 49°15' W 123°49'1019.9
2017-Apr-20 20:30N 49°18' W 123°34'1019.2
2017-Apr-20 20:01N 49°21' W 123°20'3 6.4
2017-Apr-20 19:30N 49°23' W 123°16'2 3.1
2017-Apr-20 19:00N 49°22' W 123°19'1020.0
2017-Apr-20 18:30N 49°17' W 123°32'1020.6
2017-Apr-20 18:00N 49°14' W 123°47'714.3
2017-Apr-20 17:30N 49°12' W 123°57'1 2.9
2017-Apr-20 17:00N 49°13' W 123°56'1020.1
2017-Apr-20 16:30N 49°17' W 123°42'1019.2
2017-Apr-20 16:00N 49°19' W 123°27'816.1
2017-Apr-20 15:30N 49°23' W 123°16'1 1.2
2017-Apr-20 15:00N 49°23' W 123°16'2019.6
2017-Apr-20 14:00N 49°15' W 123°44'1019.0
2017-Apr-20 13:30N 49°12' W 123°57'0 0.0
2017-Apr-20 13:00N 49°12' W 123°57'0 0.0
2017-Apr-20 12:12N 49°12' W 123°57'0 0.0
2017-Apr-20 11:54N 49°12' W 123°57'0 0.0
2017-Apr-20 10:39N 49°12' W 123°57'0 0.0
2017-Apr-20 10:30N 49°12' W 123°57'0 0.0
2017-Apr-20 09:51N 49°12' W 123°57'0 0.0
2017-Apr-20 09:27N 49°12' W 123°57'0 0.0
2017-Apr-20 08:57N 49°12' W 123°57'0 0.0
2017-Apr-20 08:30N 49°12' W 123°57'0 0.0
2017-Apr-20 08:00N 49°12' W 123°57'0 0.0
2017-Apr-20 06:09N 49°12' W 123°57'0 0.0
2017-Apr-20 05:57N 49°12' W 123°57'1 3.1
2017-Apr-20 05:29N 49°13' W 123°56'1019.9
2017-Apr-20 05:00N 49°16' W 123°42'1020.1
2017-Apr-20 04:30N 49°19' W 123°27'816.3
2017-Apr-20 04:00N 49°23' W 123°16'1 1.2
2017-Apr-20 03:31N 49°23' W 123°17'1019.3
2017-Apr-20 03:00N 49°18' W 123°29'1020.5
2017-Apr-20 02:30N 49°15' W 123°44'918.6
2017-Apr-20 02:00N 49°12' W 123°57'2 3.1
2017-Apr-20 01:30N 49°13' W 123°56'1020.0
2017-Apr-20 01:00N 49°17' W 123°41'1020.5
2017-Apr-20 00:30N 49°19' W 123°26'714.6
2017-Apr-20 00:00N 49°23' W 123°16'1 2.7
2017-Apr-19 23:30N 49°23' W 123°18'1019.2
2017-Apr-19 23:00N 49°18' W 123°31'1019.9
2017-Apr-19 22:30N 49°15' W 123°46'816.7
2017-Apr-19 22:00N 49°12' W 123°57'0 0.0
2017-Apr-19 21:29N 49°12' W 123°57'4 8.2
2017-Apr-19 21:00N 49°14' W 123°52'1020.0
2017-Apr-19 20:30N 49°17' W 123°38'1020.3
2017-Apr-19 20:01N 49°20' W 123°23'5 9.9
2017-Apr-19 19:29N 49°23' W 123°16'1 2.0
2017-Apr-19 19:00N 49°23' W 123°18'1019.0
2017-Apr-19 18:31N 49°18' W 123°30'1020.6
2017-Apr-19 18:00N 49°15' W 123°45'916.7
2017-Apr-19 17:29N 49°12' W 123°57'1 2.9
2017-Apr-19 17:00N 49°13' W 123°56'1019.8
2017-Apr-19 16:30N 49°16' W 123°42'1020.3
2017-Apr-19 16:00N 49°19' W 123°27'815.6
2017-Apr-19 15:31N 49°23' W 123°16'1 1.6
2017-Apr-19 15:01N 49°23' W 123°17'918.8
2017-Apr-19 14:30N 49°18' W 123°29'1919.3
2017-Apr-19 13:30N 49°12' W 123°57'0 0.1
2017-Apr-19 12:59N 49°12' W 123°57'0 0.0
2017-Apr-19 11:53N 49°12' W 123°57'0 0.0
2017-Apr-19 11:23N 49°12' W 123°57'0 0.0
2017-Apr-19 10:47N 49°12' W 123°57'0 0.0
2017-Apr-19 10:23N 49°12' W 123°57'0 0.0
2017-Apr-19 09:47N 49°12' W 123°57'0 0.0
2017-Apr-19 08:47N 49°12' W 123°57'0 0.0
2017-Apr-19 08:23N 49°12' W 123°57'0 0.0
2017-Apr-19 07:59N 49°12' W 123°57'0 0.0
2017-Apr-19 07:20N 49°12' W 123°57'0 0.0
2017-Apr-19 06:56N 49°12' W 123°57'0 0.0
2017-Apr-19 06:29N 49°12' W 123°57'0 0.0
2017-Apr-19 05:59N 49°12' W 123°57'2 4.9
2017-Apr-19 05:30N 49°13' W 123°54'1020.4
2017-Apr-19 05:00N 49°17' W 123°40'1020.8
2017-Apr-19 04:30N 49°19' W 123°24'612.6
2017-Apr-19 04:00N 49°23' W 123°16'2 4.6
2017-Apr-19 03:31N 49°22' W 123°19'1019.6
2017-Apr-19 03:01N 49°17' W 123°33'1020.4
2017-Apr-19 02:30N 49°14' W 123°48'713.4
2017-Apr-19 02:00N 49°12' W 123°57'4 7.1
2017-Apr-19 01:31N 49°14' W 123°53'1020.5
2017-Apr-19 01:00N 49°17' W 123°38'1020.8
2017-Apr-19 00:31N 49°20' W 123°23'510.2
2017-Apr-19 00:00N 49°23' W 123°16'3 5.2
2017-Apr-18 23:30N 49°21' W 123°20'1019.4
2017-Apr-18 23:00N 49°17' W 123°33'1020.3
2017-Apr-18 22:30N 49°14' W 123°48'712.7
2017-Apr-18 21:59N 49°12' W 123°57'0 0.0
2017-Apr-18 21:30N 49°12' W 123°57'815.2
2017-Apr-18 21:00N 49°15' W 123°47'1020.3
2017-Apr-18 20:30N 49°18' W 123°32'1019.3
2017-Apr-18 20:00N 49°22' W 123°19'2 3.5
2017-Apr-18 19:31N 49°23' W 123°16'3 5.6
2017-Apr-18 19:00N 49°21' W 123°20'1019.7
2017-Apr-18 18:31N 49°17' W 123°33'1020.3
2017-Apr-18 18:00N 49°14' W 123°49'610.7
2017-Apr-18 17:25N 49°12' W 123°57'2 3.7
2017-Apr-18 17:00N 49°13' W 123°55'1020.2
2017-Apr-18 16:30N 49°16' W 123°41'1020.8
2017-Apr-18 16:00N 49°19' W 123°26'714.1
2017-Apr-18 15:30N 49°23' W 123°16'1 1.5
2017-Apr-18 15:00N 49°23' W 123°17'1019.1
2017-Apr-18 14:30N 49°18' W 123°29'2016.9
2017-Apr-18 13:21N 49°12' W 123°57'0 0.0
2017-Apr-18 12:51N 49°12' W 123°57'0 0.0
2017-Apr-18 12:27N 49°12' W 123°57'0 0.0
2017-Apr-18 11:57N 49°12' W 123°57'0 0.0
2017-Apr-18 11:27N 49°12' W 123°57'0 0.0
2017-Apr-18 10:57N 49°12' W 123°57'0 0.0
2017-Apr-18 10:21N 49°12' W 123°57'0 0.0
2017-Apr-18 09:57N 49°12' W 123°57'0 0.0
2017-Apr-18 09:28N 49°12' W 123°57'0 0.0
2017-Apr-18 08:57N 49°12' W 123°57'0 0.0
2017-Apr-18 08:21N 49°12' W 123°57'0 0.0
2017-Apr-18 07:57N 49°12' W 123°57'0 0.0
2017-Apr-18 07:28N 49°12' W 123°57'0 0.0
2017-Apr-18 06:57N 49°12' W 123°57'0 0.0
2017-Apr-18 06:27N 49°12' W 123°57'0 0.0
2017-Apr-18 05:45N 49°12' W 123°57'0 0.0
2017-Apr-18 05:30N 49°12' W 123°57'816.2
2017-Apr-18 05:00N 49°15' W 123°46'1020.9
2017-Apr-18 04:31N 49°18' W 123°31'1019.6
2017-Apr-18 04:01N 49°23' W 123°18'1 1.9
2017-Apr-18 03:31N 49°23' W 123°16'713.6
2017-Apr-18 03:00N 49°25' W 123°26'2 3.5
2017-Apr-18 02:30N 49°26' W 123°28'2 4.1
2017-Apr-18 02:01N 49°25' W 123°25'611.1
2017-Apr-18 01:30N 49°24' W 123°17'2 3.6
2017-Apr-18 01:00N 49°23' W 123°16'2 4.4
2017-Apr-18 00:31N 49°22' W 123°19'1018.9
2017-Apr-18 00:00N 49°17' W 123°32'1020.3
2017-Apr-17 23:30N 49°14' W 123°47'714.3
2017-Apr-17 23:00N 49°12' W 123°57'0 0.0
2017-Apr-17 22:30N 49°12' W 123°57'815.2
2017-Apr-17 22:00N 49°15' W 123°47'1020.5
2017-Apr-17 21:30N 49°18' W 123°32'1019.5
2017-Apr-17 21:00N 49°22' W 123°18'1 3.0
2017-Apr-17 20:31N 49°23' W 123°16'2 4.3
2017-Apr-17 20:00N 49°21' W 123°19'1019.5
2017-Apr-17 19:31N 49°17' W 123°32'1020.3
2017-Apr-17 19:00N 49°14' W 123°47'  
Track history (hours):
 
Tides and Currents Weather Stations Pressure Air Temp Water Temp Dewpoint Dewpoint Depression Visibility Wind Speed Wind Dir Waves Ship Positions

Queen Of Cowichan

Last reported at 2017-Apr-27 18:30 UTC. Time now 2017-Apr-27 18:52 UTC.
Position N 49°17' W 123°31'.

Length 139 m.

Type: Passenger vessel. MMSI: 316001251.

Date/timePositionNaut miles runAvg speedWind from/ knotsBaromVisibWave heightAir tempDewpointWater temp
2017-Apr-27 18:30N 49°17' W 123°31'9 4.7
2017-Apr-27 16:36N 49°15' W 123°44'219.7
2017-Apr-27 16:30N 49°16' W 123°42'1019.5
2017-Apr-27 16:00N 49°19' W 123°28'816.9
2017-Apr-27 15:30N 49°23' W 123°16'0 0.9
2017-Apr-27 15:00N 49°23' W 123°16'2019.6
2017-Apr-27 14:00N 49°15' W 123°44'3 0.3
2017-Apr-27 05:15N 49°15' W 123°48'519.5
2017-Apr-27 05:00N 49°17' W 123°41'1019.5
2017-Apr-27 04:30N 49°17' W 123°26'816.4
2017-Apr-27 04:00N 49°23' W 123°16'1 1.4
2017-Apr-27 03:30N 49°23' W 123°17'1019.2
2017-Apr-27 03:01N 49°18' W 123°29'1120.8
2017-Apr-27 02:30N 49°15' W 123°44'910.7
2017-Apr-27 01:40N 49°12' W 123°57'212.4
2017-Apr-27 01:29N 49°13' W 123°55'1019.6
2017-Apr-27 01:00N 49°17' W 123°41'1019.8
2017-Apr-27 00:30N 49°19' W 123°27'8 8.2
2017-Apr-26 23:34N 49°23' W 123°16'1 9.4
2017-Apr-26 23:30N 49°23' W 123°17'919.2
2017-Apr-26 23:00N 49°18' W 123°29'1020.3
2017-Apr-26 22:30N 49°15' W 123°44'9 7.0
2017-Apr-26 21:11N 49°12' W 123°57'618.6
2017-Apr-26 20:52N 49°14' W 123°49'720.2
2017-Apr-26 20:30N 49°17' W 123°39'1020.2
2017-Apr-26 20:00N 49°19' W 123°24'6 6.7
2017-Apr-26 19:07N 49°23' W 123°16'1 8.6
2017-Apr-26 19:00N 49°23' W 123°18'1019.4
2017-Apr-26 18:30N 49°17' W 123°30'1912.8
2017-Apr-26 17:03N 49°12' W 123°57'114.2
2017-Apr-26 17:00N 49°12' W 123°56'1019.4
2017-Apr-26 16:29N 49°16' W 123°42'1020.0
2017-Apr-26 16:00N 49°19' W 123°28'815.0
2017-Apr-26 15:26N 49°23' W 123°16'0 1.1
2017-Apr-26 15:00N 49°23' W 123°16'918.5
2017-Apr-26 14:30N 49°18' W 123°28'13 1.4
2017-Apr-26 05:10N 49°15' W 123°47'320.1
2017-Apr-26 05:00N 49°16' W 123°43'1020.6
2017-Apr-26 04:30N 49°19' W 123°27'816.2
2017-Apr-26 04:00N 49°23' W 123°16'1 2.3
2017-Apr-26 03:30N 49°23' W 123°18'1019.7
2017-Apr-26 03:00N 49°17' W 123°31'1120.8
2017-Apr-26 02:28N 49°15' W 123°47'6 6.7
2017-Apr-26 01:35N 49°13' W 123°56'319.6
2017-Apr-26 01:26N 49°14' W 123°52'819.8
2017-Apr-26 01:00N 49°17' W 123°40'1020.2
2017-Apr-26 00:30N 49°19' W 123°25'6 8.7
2017-Apr-25 23:46N 49°23' W 123°16'1 3.9
2017-Apr-25 23:31N 49°23' W 123°18'1019.6
2017-Apr-25 23:00N 49°18' W 123°30'1020.3
2017-Apr-25 22:30N 49°15' W 123°45'4 2.3
2017-Apr-25 20:54N 49°14' W 123°51'820.0
2017-Apr-25 20:30N 49°17' W 123°40'1020.2
2017-Apr-25 20:00N 49°19' W 123°25'612.0
2017-Apr-25 19:29N 49°23' W 123°16'1 2.5
2017-Apr-25 19:00N 49°23' W 123°18'1019.6
2017-Apr-25 18:31N 49°17' W 123°31'1120.4
2017-Apr-25 17:59N 49°14' W 123°47'7 8.4
2017-Apr-25 17:06N 49°12' W 123°57'214.1
2017-Apr-25 16:58N 49°13' W 123°55'919.6
2017-Apr-25 16:30N 49°17' W 123°42'1020.1
2017-Apr-25 16:00N 49°19' W 123°27'8 8.5
2017-Apr-25 15:02N 49°23' W 123°16'011.3
2017-Apr-25 15:01N 49°23' W 123°17'1019.4
2017-Apr-25 14:30N 49°18' W 123°29'18 2.0
2017-Apr-25 05:28N 49°13' W 123°56'920.0
2017-Apr-25 05:00N 49°16' W 123°43'1020.5
2017-Apr-25 04:30N 49°19' W 123°28'8 8.7
2017-Apr-25 03:33N 49°23' W 123°16'010.0
2017-Apr-25 03:30N 49°23' W 123°16'918.6
2017-Apr-25 03:00N 49°18' W 123°28'1020.6
2017-Apr-25 02:30N 49°15' W 123°43'1 0.9
2017-Apr-25 01:08N 49°15' W 123°45'219.7
2017-Apr-25 01:00N 49°16' W 123°41'1019.8
2017-Apr-25 00:30N 49°19' W 123°27'811.6
2017-Apr-24 23:50N 49°23' W 123°16'1 2.5
2017-Apr-24 23:31N 49°23' W 123°17'1019.6
2017-Apr-24 23:01N 49°18' W 123°30'1020.7
2017-Apr-24 22:30N 49°15' W 123°45'9 7.8
2017-Apr-24 21:25N 49°12' W 123°57'819.1
2017-Apr-24 20:59N 49°16' W 123°46'919.8
2017-Apr-24 20:30N 49°18' W 123°32'918.7
2017-Apr-24 20:00N 49°22' W 123°19'2 3.6
2017-Apr-24 19:29N 49°23' W 123°16'2 4.9
2017-Apr-24 19:00N 49°21' W 123°19'1019.6
2017-Apr-24 18:30N 49°17' W 123°33'12 7.6
2017-Apr-24 16:54N 49°14' W 123°51'819.8
2017-Apr-24 16:31N 49°17' W 123°40'1020.3
2017-Apr-24 16:01N 49°19' W 123°25'712.5
2017-Apr-24 15:28N 49°23' W 123°16'1 1.5
2017-Apr-24 15:01N 49°23' W 123°17'1019.3
2017-Apr-24 14:30N 49°18' W 123°29'1919.4
2017-Apr-24 13:30N 49°12' W 123°57'0 0.0
2017-Apr-24 13:00N 49°12' W 123°57'0 0.0
2017-Apr-24 09:29N 49°12' W 123°57'0 0.0
2017-Apr-24 08:59N 49°12' W 123°57'0 0.0
2017-Apr-24 06:11N 49°12' W 123°57'1 6.0
2017-Apr-24 06:00N 49°12' W 123°56'1020.0
2017-Apr-24 05:30N 49°16' W 123°42'1020.4
2017-Apr-24 05:00N 49°19' W 123°27'815.9
2017-Apr-24 04:30N 49°23' W 123°16'1 1.6
2017-Apr-24 04:00N 49°23' W 123°17'1019.3
2017-Apr-24 03:31N 49°18' W 123°30'1020.1
2017-Apr-24 03:00N 49°15' W 123°45'917.9
2017-Apr-24 02:30N 49°12' W 123°57'0 0.0
2017-Apr-24 02:00N 49°12' W 123°57'4 8.3
2017-Apr-24 01:30N 49°14' W 123°52'1019.9
2017-Apr-24 01:00N 49°17' W 123°38'1020.3
2017-Apr-24 00:30N 49°20' W 123°23'510.2
2017-Apr-24 00:00N 49°23' W 123°16'1 1.5
2017-Apr-23 23:30N 49°23' W 123°17'918.9
2017-Apr-23 23:01N 49°18' W 123°29'1020.3
2017-Apr-23 22:30N 49°15' W 123°44'918.8
2017-Apr-23 22:00N 49°12' W 123°57'0 0.0
2017-Apr-23 21:30N 49°12' W 123°57'4 7.7
2017-Apr-23 21:00N 49°14' W 123°53'1019.8
2017-Apr-23 20:30N 49°17' W 123°38'1020.1
2017-Apr-23 20:00N 49°19' W 123°23'611.2
2017-Apr-23 19:31N 49°23' W 123°16'1 2.1
2017-Apr-23 19:01N 49°23' W 123°18'1019.3
2017-Apr-23 18:30N 49°17' W 123°30'1020.3
2017-Apr-23 18:00N 49°15' W 123°45'815.8
2017-Apr-23 17:28N 49°12' W 123°57'1 2.1
2017-Apr-23 17:00N 49°12' W 123°56'1019.7
2017-Apr-23 16:30N 49°16' W 123°42'1020.2
2017-Apr-23 16:01N 49°18' W 123°27'816.8
2017-Apr-23 15:30N 49°23' W 123°16'1 1.4
2017-Apr-23 15:00N 49°23' W 123°17'1918.9
2017-Apr-23 14:00N 49°15' W 123°43'1019.5
2017-Apr-23 13:30N 49°12' W 123°57'0 0.3
2017-Apr-23 13:00N 49°12' W 123°57'0 0.0
2017-Apr-23 12:30N 49°12' W 123°57'0 0.0
2017-Apr-23 11:57N 49°12' W 123°57'0 0.0
2017-Apr-23 11:27N 49°12' W 123°57'0 0.0
2017-Apr-23 11:00N 49°12' W 123°57'0 0.0
2017-Apr-23 09:54N 49°12' W 123°57'0 0.0
2017-Apr-23 09:30N 49°12' W 123°57'0 0.0
2017-Apr-23 08:51N 49°12' W 123°57'0 0.0
2017-Apr-23 08:30N 49°12' W 123°57'0 0.0
2017-Apr-23 07:57N 49°12' W 123°57'0 0.0
2017-Apr-23 07:21N 49°12' W 123°57'0 0.0
2017-Apr-23 05:43N 49°12' W 123°57'2 8.0
2017-Apr-23 05:30N 49°13' W 123°55'1019.9
2017-Apr-23 05:00N 49°17' W 123°41'1020.0
2017-Apr-23 04:30N 49°19' W 123°27'815.2
2017-Apr-23 04:00N 49°23' W 123°16'2 4.0
2017-Apr-23 03:30N 49°22' W 123°19'1019.3
2017-Apr-23 03:00N 49°17' W 123°32'1020.7
2017-Apr-23 02:30N 49°14' W 123°47'714.1
2017-Apr-23 02:00N 49°12' W 123°57'3 5.5
2017-Apr-23 01:30N 49°13' W 123°54'1020.1
2017-Apr-23 01:00N 49°17' W 123°40'1020.4
2017-Apr-23 00:30N 49°19' W 123°25'612.5
2017-Apr-23 00:00N 49°23' W 123°16'1 2.3
2017-Apr-22 23:30N 49°23' W 123°18'918.7
2017-Apr-22 23:00N 49°18' W 123°30'1019.7
2017-Apr-22 22:30N 49°15' W 123°45'916.7
2017-Apr-22 21:58N 49°12' W 123°57'0 0.0
2017-Apr-22 21:24N 49°12' W 123°57'4 9.9
2017-Apr-22 21:00N 49°14' W 123°52'1020.2
2017-Apr-22 20:30N 49°17' W 123°38'1020.0
2017-Apr-22 20:00N 49°19' W 123°23'510.7
2017-Apr-22 19:30N 49°23' W 123°16'2 4.1
2017-Apr-22 19:00N 49°22' W 123°19'1019.7
2017-Apr-22 18:30N 49°17' W 123°32'1020.7
2017-Apr-22 18:00N 49°14' W 123°47'713.6
2017-Apr-22 17:30N 49°12' W 123°57'1 2.6
2017-Apr-22 17:00N 49°12' W 123°56'1019.8
2017-Apr-22 16:30N 49°16' W 123°42'1020.0
2017-Apr-22 16:00N 49°18' W 123°27'816.1
2017-Apr-22 15:30N 49°23' W 123°16'1 1.6
2017-Apr-22 15:00N 49°23' W 123°17'1019.4
2017-Apr-22 14:31N 49°17' W 123°29'19 3.7
2017-Apr-22 09:19N 49°12' W 123°57'0 0.0
2017-Apr-22 08:28N 49°12' W 123°57'0 0.0
2017-Apr-22 07:52N 49°12' W 123°57'0 0.0
2017-Apr-22 05:54N 49°12' W 123°57'614.0
2017-Apr-22 05:30N 49°15' W 123°50'1020.4
2017-Apr-22 05:00N 49°18' W 123°35'1020.2
2017-Apr-22 04:31N 49°20' W 123°20'4 7.0
2017-Apr-22 04:00N 49°23' W 123°16'510.8
2017-Apr-22 03:30N 49°19' W 123°23'1020.5
2017-Apr-22 03:00N 49°16' W 123°38'1120.5
2017-Apr-22 02:30N 49°13' W 123°53'3 6.4
2017-Apr-22 01:59N 49°12' W 123°57'5 9.8
2017-Apr-22 01:30N 49°14' W 123°51'1020.1
2017-Apr-22 01:00N 49°17' W 123°37'1019.8
2017-Apr-22 00:30N 49°20' W 123°22'5 8.0
2017-Apr-21 23:55N 49°23' W 123°16'0 1.1
2017-Apr-21 23:30N 49°23' W 123°16'918.5
2017-Apr-21 23:00N 49°18' W 123°28'1020.6
2017-Apr-21 22:30N 49°15' W 123°43'1019.3
2017-Apr-21 22:00N 49°12' W 123°57'0 0.2
2017-Apr-21 21:30N 49°12' W 123°57'510.3
2017-Apr-21 21:00N 49°15' W 123°51'1019.9
2017-Apr-21 20:30N 49°18' W 123°37'1019.8
2017-Apr-21 20:00N 49°20' W 123°22'5 9.3
2017-Apr-21 19:30N 49°23' W 123°16'1 2.4
2017-Apr-21 19:00N 49°23' W 123°18'1019.5
2017-Apr-21 18:31N 49°17' W 123°31'1120.6
2017-Apr-21 18:00N 49°15' W 123°47'815.9
2017-Apr-21 17:30N 49°12' W 123°57'1 1.6
2017-Apr-21 17:00N 49°12' W 123°57'1019.9
2017-Apr-21 16:30N 49°16' W 123°43'1020.2
2017-Apr-21 16:01N 49°19' W 123°28'816.7
2017-Apr-21 15:30N 49°23' W 123°16'1 1.5
2017-Apr-21 15:00N 49°23' W 123°17'918.9
2017-Apr-21 14:30N 49°18' W 123°29'19 6.0
2017-Apr-21 11:17N 49°12' W 123°57'0 0.0
2017-Apr-21 08:59N 49°12' W 123°57'0 0.0
2017-Apr-21 08:23N 49°12' W 123°57'0 0.0
2017-Apr-21 07:47N 49°12' W 123°57'0 0.0
2017-Apr-21 05:50N 49°12' W 123°57'514.0
2017-Apr-21 05:30N 49°14' W 123°51'1020.5
2017-Apr-21 05:00N 49°18' W 123°37'1020.3
2017-Apr-21 04:31N 49°20' W 123°22'5 9.0
2017-Apr-21 04:00N 49°23' W 123°16'510.4
2017-Apr-21 03:30N 49°19' W 123°22'1020.5
2017-Apr-21 03:00N 49°16' W 123°37'1020.5
2017-Apr-21 02:30N 49°14' W 123°52'4 7.4
2017-Apr-21 02:00N 49°12' W 123°57'510.0
2017-Apr-21 01:30N 49°14' W 123°51'1020.2
2017-Apr-21 01:00N 49°18' W 123°36'1019.6
2017-Apr-21 00:30N 49°20' W 123°22'4 8.8
2017-Apr-21 00:00N 49°23' W 123°16'2 3.3
2017-Apr-20 23:30N 49°22' W 123°19'1019.2
2017-Apr-20 23:01N 49°17' W 123°31'1020.3
2017-Apr-20 22:30N 49°14' W 123°46'815.3
2017-Apr-20 22:00N 49°12' W 123°57'0 0.0
2017-Apr-20 21:29N 49°12' W 123°57'613.3
2017-Apr-20 21:00N 49°15' W 123°49'1019.9
2017-Apr-20 20:30N 49°18' W 123°34'1019.2
2017-Apr-20 20:01N 49°21' W 123°20'3 6.4
2017-Apr-20 19:30N 49°23' W 123°16'2 3.1
2017-Apr-20 19:00N 49°22' W 123°19'1020.0
2017-Apr-20 18:30N 49°17' W 123°32'1020.6
2017-Apr-20 18:00N 49°14' W 123°47'714.3
2017-Apr-20 17:30N 49°12' W 123°57'1 2.9
2017-Apr-20 17:00N 49°13' W 123°56'1020.1
2017-Apr-20 16:30N 49°17' W 123°42'1019.2
2017-Apr-20 16:00N 49°19' W 123°27'816.1
2017-Apr-20 15:30N 49°23' W 123°16'1 1.2
2017-Apr-20 15:00N 49°23' W 123°16'2019.6
2017-Apr-20 14:00N 49°15' W 123°44'1019.0
2017-Apr-20 13:30N 49°12' W 123°57'0 0.0
2017-Apr-20 13:00N 49°12' W 123°57'0 0.0
2017-Apr-20 12:12N 49°12' W 123°57'0 0.0
2017-Apr-20 11:54N 49°12' W 123°57'0 0.0
2017-Apr-20 10:39N 49°12' W 123°57'0 0.0
2017-Apr-20 10:30N 49°12' W 123°57'0 0.0
2017-Apr-20 09:51N 49°12' W 123°57'0 0.0
2017-Apr-20 09:27N 49°12' W 123°57'0 0.0
2017-Apr-20 08:57N 49°12' W 123°57'0 0.0
2017-Apr-20 08:30N 49°12' W 123°57'0 0.0
2017-Apr-20 08:00N 49°12' W 123°57'0 0.0
2017-Apr-20 06:09N 49°12' W 123°57'0 0.0
2017-Apr-20 05:57N 49°12' W 123°57'1 3.1
2017-Apr-20 05:29N 49°13' W 123°56'1019.9
2017-Apr-20 05:00N 49°16' W 123°42'1020.1
2017-Apr-20 04:30N 49°19' W 123°27'816.3
2017-Apr-20 04:00N 49°23' W 123°16'1 1.2
2017-Apr-20 03:31N 49°23' W 123°17'1019.3
2017-Apr-20 03:00N 49°18' W 123°29'1020.5
2017-Apr-20 02:30N 49°15' W 123°44'918.6
2017-Apr-20 02:00N 49°12' W 123°57'2 3.1
2017-Apr-20 01:30N 49°13' W 123°56'1020.0
2017-Apr-20 01:00N 49°17' W 123°41'1020.5
2017-Apr-20 00:30N 49°19' W 123°26'714.6
2017-Apr-20 00:00N 49°23' W 123°16'1 2.7
2017-Apr-19 23:30N 49°23' W 123°18'1019.2
2017-Apr-19 23:00N 49°18' W 123°31'1019.9
2017-Apr-19 22:30N 49°15' W 123°46'816.7
2017-Apr-19 22:00N 49°12' W 123°57'0 0.0
2017-Apr-19 21:29N 49°12' W 123°57'4 8.2
2017-Apr-19 21:00N 49°14' W 123°52'1020.0
2017-Apr-19 20:30N 49°17' W 123°38'1020.3
2017-Apr-19 20:01N 49°20' W 123°23'5 9.9
2017-Apr-19 19:29N 49°23' W 123°16'1 2.0
2017-Apr-19 19:00N 49°23' W 123°18'1019.0
2017-Apr-19 18:31N 49°18' W 123°30'1020.6
2017-Apr-19 18:00N 49°15' W 123°45'916.7
2017-Apr-19 17:29N 49°12' W 123°57'1 2.9
2017-Apr-19 17:00N 49°13' W 123°56'1019.8
2017-Apr-19 16:30N 49°16' W 123°42'1020.3
2017-Apr-19 16:00N 49°19' W 123°27'815.6
2017-Apr-19 15:31N 49°23' W 123°16'1 1.6
2017-Apr-19 15:01N 49°23' W 123°17'918.8
2017-Apr-19 14:30N 49°18' W 123°29'1919.3
2017-Apr-19 13:30N 49°12' W 123°57'0 0.1
2017-Apr-19 12:59N 49°12' W 123°57'0 0.0
2017-Apr-19 11:53N 49°12' W 123°57'0 0.0
2017-Apr-19 11:23N 49°12' W 123°57'0 0.0
2017-Apr-19 10:47N 49°12' W 123°57'0 0.0
2017-Apr-19 10:23N 49°12' W 123°57'0 0.0
2017-Apr-19 09:47N 49°12' W 123°57'0 0.0
2017-Apr-19 08:47N 49°12' W 123°57'0 0.0
2017-Apr-19 08:23N 49°12' W 123°57'0 0.0
2017-Apr-19 07:59N 49°12' W 123°57'0 0.0
2017-Apr-19 07:20N 49°12' W 123°57'0 0.0
2017-Apr-19 06:56N 49°12' W 123°57'0 0.0
2017-Apr-19 06:29N 49°12' W 123°57'0 0.0
2017-Apr-19 05:59N 49°12' W 123°57'2 4.9
2017-Apr-19 05:30N 49°13' W 123°54'1020.4
2017-Apr-19 05:00N 49°17' W 123°40'1020.8
2017-Apr-19 04:30N 49°19' W 123°24'612.6
2017-Apr-19 04:00N 49°23' W 123°16'2 4.6
2017-Apr-19 03:31N 49°22' W 123°19'1019.6
2017-Apr-19 03:01N 49°17' W 123°33'1020.4
2017-Apr-19 02:30N 49°14' W 123°48'713.4
2017-Apr-19 02:00N 49°12' W 123°57'4 7.1
2017-Apr-19 01:31N 49°14' W 123°53'1020.5
2017-Apr-19 01:00N 49°17' W 123°38'1020.8
2017-Apr-19 00:31N 49°20' W 123°23'510.2
2017-Apr-19 00:00N 49°23' W 123°16'3 5.2
2017-Apr-18 23:30N 49°21' W 123°20'1019.4
2017-Apr-18 23:00N 49°17' W 123°33'1020.3
2017-Apr-18 22:30N 49°14' W 123°48'712.7
2017-Apr-18 21:59N 49°12' W 123°57'0 0.0
2017-Apr-18 21:30N 49°12' W 123°57'815.2
2017-Apr-18 21:00N 49°15' W 123°47'1020.3
2017-Apr-18 20:30N 49°18' W 123°32'1019.3
2017-Apr-18 20:00N 49°22' W 123°19'2 3.5
2017-Apr-18 19:31N 49°23' W 123°16'3 5.6
2017-Apr-18 19:00N 49°21' W 123°20'1019.7
2017-Apr-18 18:31N 49°17' W 123°33'1020.3
2017-Apr-18 18:00N 49°14' W 123°49'610.7
2017-Apr-18 17:25N 49°12' W 123°57'2 3.7
2017-Apr-18 17:00N 49°13' W 123°55'1020.2
2017-Apr-18 16:30N 49°16' W 123°41'1020.8
2017-Apr-18 16:00N 49°19' W 123°26'714.1
2017-Apr-18 15:30N 49°23' W 123°16'1 1.5
2017-Apr-18 15:00N 49°23' W 123°17'1019.1
2017-Apr-18 14:30N 49°18' W 123°29'2016.9
2017-Apr-18 13:21N 49°12' W 123°57'0 0.0
2017-Apr-18 12:51N 49°12' W 123°57'0 0.0
2017-Apr-18 12:27N 49°12' W 123°57'0 0.0
2017-Apr-18 11:57N 49°12' W 123°57'0 0.0
2017-Apr-18 11:27N 49°12' W 123°57'0 0.0
2017-Apr-18 10:57N 49°12' W 123°57'0 0.0
2017-Apr-18 10:21N 49°12' W 123°57'0 0.0
2017-Apr-18 09:57N 49°12' W 123°57'0 0.0
2017-Apr-18 09:28N 49°12' W 123°57'0 0.0
2017-Apr-18 08:57N 49°12' W 123°57'0 0.0
2017-Apr-18 08:21N 49°12' W 123°57'0 0.0
2017-Apr-18 07:57N 49°12' W 123°57'0 0.0
2017-Apr-18 07:28N 49°12' W 123°57'0 0.0
2017-Apr-18 06:57N 49°12' W 123°57'0 0.0
2017-Apr-18 06:27N 49°12' W 123°57'0 0.0
2017-Apr-18 05:45N 49°12' W 123°57'0 0.0
2017-Apr-18 05:30N 49°12' W 123°57'816.2
2017-Apr-18 05:00N 49°15' W 123°46'1020.9
2017-Apr-18 04:31N 49°18' W 123°31'1019.6
2017-Apr-18 04:01N 49°23' W 123°18'1 1.9
2017-Apr-18 03:31N 49°23' W 123°16'713.6
2017-Apr-18 03:00N 49°25' W 123°26'2 3.5
2017-Apr-18 02:30N 49°26' W 123°28'2 4.1
2017-Apr-18 02:01N 49°25' W 123°25'611.1
2017-Apr-18 01:30N 49°24' W 123°17'2 3.6
2017-Apr-18 01:00N 49°23' W 123°16'2 4.4
2017-Apr-18 00:31N 49°22' W 123°19'1018.9
2017-Apr-18 00:00N 49°17' W 123°32'1020.3
2017-Apr-17 23:30N 49°14' W 123°47'714.3
2017-Apr-17 23:00N 49°12' W 123°57'0 0.0
2017-Apr-17 22:30N 49°12' W 123°57'815.2
2017-Apr-17 22:00N 49°15' W 123°47'1020.5
2017-Apr-17 21:30N 49°18' W 123°32'1019.5
2017-Apr-17 21:00N 49°22' W 123°18'1 3.0
2017-Apr-17 20:31N 49°23' W 123°16'2 4.3
2017-Apr-17 20:00N 49°21' W 123°19'1019.5
2017-Apr-17 19:31N 49°17' W 123°32'1020.3
2017-Apr-17 19:00N 49°14' W 123°47'  

Dump ship's entire track history